Time;durP1;ratioP1;P1;durP2;ratioP2;P2;SDS_P1;SDS_P2;PMS_P1;PMS_P2;Temp;Humidity;BMP_temperature;BMP_pressure;BME280_temperature;BME280_humidity;BME280_pressure;Samples;Min_cycle;Max_cycle;Signal;HPM_P1;HPM_P2
2022/03/26 00:01:49;;;;;;;34.42;16.55;;;8.60;51.30;;;;;;4983579;28;20117;-85
2022/03/26 00:04:15;;;;;;;37.85;17.58;;;8.60;51.40;;;;;;4967167;28;20481;-87
2022/03/26 00:06:41;;;;;;;33.00;17.00;;;8.50;51.40;;;;;;4983815;28;20034;-88
2022/03/26 00:09:06;;;;;;;32.88;16.98;;;8.40;51.40;;;;;;4983407;28;20031;-85
2022/03/26 00:11:32;;;;;;;36.50;17.20;;;8.40;51.60;;;;;;4983618;28;20023;-85
2022/03/26 00:13:57;;;;;;;35.03;17.63;;;8.40;51.80;;;;;;4980151;28;20030;-86
2022/03/26 00:16:23;;;;;;;35.97;18.23;;;8.30;51.80;;;;;;4983328;28;20038;-86
2022/03/26 00:18:48;;;;;;;38.05;18.55;;;8.30;51.90;;;;;;4982868;28;20031;-85
2022/03/26 00:21:14;;;;;;;35.33;17.95;;;8.30;52.00;;;;;;4982489;28;20030;-86
2022/03/26 00:23:40;;;;;;;35.22;16.98;;;8.20;52.20;;;;;;4983754;28;20140;-87
2022/03/26 00:26:05;;;;;;;36.10;16.85;;;8.10;52.10;;;;;;4980751;28;20038;-87
2022/03/26 00:28:31;;;;;;;32.45;17.67;;;8.10;52.10;;;;;;4981903;28;20034;-83
2022/03/26 00:30:57;;;;;;;34.90;16.48;;;8.10;52.30;;;;;;4982527;28;20491;-86
2022/03/26 00:33:25;;;;;;;31.00;16.73;;;8.10;52.40;;;;;;4982608;28;20027;-84
2022/03/26 00:35:50;;;;;;;33.70;17.15;;;8.00;52.30;;;;;;4980135;28;20023;-86
2022/03/26 00:38:16;;;;;;;34.25;16.90;;;8.00;52.40;;;;;;4983062;28;20037;-86
2022/03/26 00:40:41;;;;;;;32.60;16.27;;;7.90;52.40;;;;;;4981811;28;20058;-86
2022/03/26 00:43:07;;;;;;;31.80;15.80;;;7.90;52.50;;;;;;4981267;28;20085;-88
2022/03/26 00:45:34;;;;;;;31.30;15.65;;;7.80;52.50;;;;;;4978810;28;20034;-85
2022/03/26 00:48:00;;;;;;;35.63;16.60;;;7.80;52.60;;;;;;4976051;28;20031;-86
2022/03/26 00:50:26;;;;;;;33.45;16.23;;;7.80;52.80;;;;;;4972510;28;20027;-86
2022/03/26 00:52:52;;;;;;;33.78;15.90;;;7.70;52.80;;;;;;4976875;28;20038;-86
2022/03/26 00:55:17;;;;;;;29.85;15.85;;;7.70;52.80;;;;;;4978310;28;20086;-85
2022/03/26 00:57:43;;;;;;;30.27;15.48;;;7.70;52.80;;;;;;4980420;28;20038;-87
2022/03/26 01:00:10;;;;;;;30.55;14.75;;;7.70;53.00;;;;;;4979746;28;20026;-85
2022/03/26 01:02:36;;;;;;;37.45;16.05;;;7.70;53.00;;;;;;4979016;28;20508;-84
2022/03/26 01:05:04;;;;;;;32.05;15.85;;;7.60;52.90;;;;;;4979532;28;20023;-84
2022/03/26 01:07:31;;;;;;;32.50;16.45;;;7.60;52.90;;;;;;4980882;28;20493;-86
2022/03/26 01:09:57;;;;;;;33.55;16.45;;;7.60;53.00;;;;;;4977242;28;20047;-87
2022/03/26 01:12:24;;;;;;;30.88;15.60;;;7.60;53.00;;;;;;4977373;28;20417;-85
2022/03/26 01:14:51;;;;;;;31.55;16.33;;;7.50;52.90;;;;;;4979773;28;20118;-84
2022/03/26 01:17:16;;;;;;;31.13;16.20;;;7.50;53.00;;;;;;4966249;28;20023;-87
2022/03/26 01:19:43;;;;;;;32.80;17.52;;;7.50;53.10;;;;;;4980502;28;20041;-86
2022/03/26 01:22:09;;;;;;;39.90;19.42;;;7.40;53.10;;;;;;4981125;28;20049;-87
2022/03/26 01:24:35;;;;;;;47.33;19.42;;;7.40;53.20;;;;;;4982347;28;20042;-86
2022/03/26 01:27:00;;;;;;;31.08;16.70;;;7.30;53.30;;;;;;4980101;28;20031;-86
2022/03/26 01:29:26;;;;;;;31.63;16.05;;;7.40;53.30;;;;;;4968161;28;20031;-85
2022/03/26 01:31:53;;;;;;;32.50;15.32;;;7.30;53.40;;;;;;4980189;28;20038;-84
2022/03/26 01:34:19;;;;;;;33.45;15.82;;;7.30;53.30;;;;;;4979903;28;20023;-85
2022/03/26 01:36:45;;;;;;;32.60;16.05;;;7.30;53.40;;;;;;4981277;28;20110;-87
2022/03/26 01:39:11;;;;;;;29.92;15.35;;;7.20;53.40;;;;;;4983394;28;20066;-86
2022/03/26 01:41:37;;;;;;;32.88;16.27;;;7.20;53.50;;;;;;4981250;28;20030;-86
2022/03/26 01:44:03;;;;;;;39.60;17.08;;;7.20;53.60;;;;;;4982397;28;20035;-86
2022/03/26 01:46:51;;;;;;;32.85;17.63;;;7.20;53.70;;;;;;4982213;28;20436;-85
2022/03/26 01:49:17;;;;;;;29.88;16.13;;;7.20;54.00;;;;;;4979972;28;20026;-87
2022/03/26 01:51:43;;;;;;;29.75;15.38;;;7.10;53.70;;;;;;4981511;28;20027;-86
2022/03/26 01:54:10;;;;;;;31.63;16.23;;;7.10;53.70;;;;;;4982965;28;20030;-86
2022/03/26 01:56:38;;;;;;;31.45;15.77;;;7.10;53.90;;;;;;4986153;28;20030;-85
2022/03/26 01:59:06;;;;;;;36.75;18.13;;;7.10;53.90;;;;;;4985628;28;20039;-85
2022/03/26 02:01:34;;;;;;;33.20;17.90;;;7.00;54.00;;;;;;4984031;28;20113;-85
2022/03/26 02:04:01;;;;;;;32.50;16.25;;;7.10;54.20;;;;;;4989785;28;20090;-84
2022/03/26 02:06:31;;;;;;;31.35;16.52;;;7.00;54.10;;;;;;4978894;28;20023;-86
2022/03/26 02:09:01;;;;;;;29.02;14.88;;;6.90;54.10;;;;;;4979843;28;20418;-85
2022/03/26 02:11:31;;;;;;;33.45;16.13;;;6.80;54.10;;;;;;4983600;28;20113;-84
2022/03/26 02:13:57;;;;;;;33.10;15.75;;;6.90;54.90;;;;;;4983461;28;20026;-84
2022/03/26 02:16:24;;;;;;;32.60;16.40;;;6.90;54.30;;;;;;4982851;28;20240;-84
2022/03/26 02:18:51;;;;;;;34.05;16.02;;;6.80;54.20;;;;;;4982809;28;20035;-85
2022/03/26 02:21:17;;;;;;;32.17;16.35;;;6.70;54.30;;;;;;4974397;28;20050;-84
2022/03/26 02:23:44;;;;;;;33.50;16.20;;;6.80;54.30;;;;;;4984206;28;20063;-86
2022/03/26 02:26:13;;;;;;;28.42;15.68;;;6.70;54.50;;;;;;4980143;28;20088;-85
2022/03/26 02:28:38;;;;;;;32.72;16.45;;;6.70;54.60;;;;;;4982908;28;20465;-87
2022/03/26 02:31:04;;;;;;;35.13;16.73;;;6.70;54.60;;;;;;4982500;28;20023;-86
2022/03/26 02:33:30;;;;;;;33.33;16.52;;;6.70;54.70;;;;;;4983785;28;20555;-85
2022/03/26 02:35:55;;;;;;;31.70;15.88;;;6.60;54.70;;;;;;4981685;28;20019;-87
2022/03/26 02:38:23;;;;;;;33.20;16.23;;;6.60;54.70;;;;;;4980112;28;20109;-85
2022/03/26 02:40:48;;;;;;;35.67;16.15;;;6.60;54.60;;;;;;4982012;28;20023;-87
2022/03/26 02:46:39;;;;;;;29.90;14.75;;;6.60;54.60;;;;;;4994840;28;20578;-91
2022/03/26 02:49:08;;;;;;;33.22;14.90;;;6.50;54.80;;;;;;4977073;28;20100;-92
2022/03/26 02:51:34;;;;;;;27.88;14.90;;;6.50;55.10;;;;;;4982447;28;20484;-91
2022/03/26 02:54:00;;;;;;;31.30;16.15;;;6.50;54.70;;;;;;4964595;28;20027;-89
2022/03/26 02:56:26;;;;;;;26.02;14.85;;;6.40;54.90;;;;;;4955080;29;20521;-92
2022/03/26 02:58:51;;;;;;;29.60;15.32;;;6.40;55.00;;;;;;4954195;28;20023;-91
2022/03/26 03:01:17;;;;;;;31.80;14.73;;;6.40;55.00;;;;;;4965522;28;20062;-91
2022/03/26 03:03:43;;;;;;;31.73;14.98;;;6.30;55.50;;;;;;4970647;28;20034;-91
2022/03/26 03:06:08;;;;;;;32.95;16.30;;;6.30;55.10;;;;;;4954876;28;20085;-91
2022/03/26 03:08:34;;;;;;;32.10;15.27;;;6.30;55.10;;;;;;4958773;28;20101;-92
2022/03/26 03:10:59;;;;;;;34.40;15.88;;;6.20;55.10;;;;;;4965250;28;20026;-92
2022/03/26 03:13:25;;;;;;;30.70;14.88;;;6.20;55.20;;;;;;4970853;28;20380;-92
2022/03/26 03:15:52;;;;;;;33.22;16.00;;;6.10;55.30;;;;;;4976456;28;20117;-91
2022/03/26 03:18:19;;;;;;;33.88;15.85;;;6.10;55.30;;;;;;4963522;28;20027;-91
2022/03/26 03:20:45;;;;;;;28.85;14.43;;;6.10;55.30;;;;;;4965970;28;20125;-92
2022/03/26 03:23:11;;;;;;;27.75;14.00;;;6.10;55.30;;;;;;4967969;28;20090;-92
2022/03/26 03:25:37;;;;;;;26.38;14.13;;;6.10;55.50;;;;;;4960038;28;20384;-92
2022/03/26 03:28:04;;;;;;;30.23;14.70;;;6.10;55.60;;;;;;4950886;29;20031;-92
2022/03/26 03:30:29;;;;;;;29.65;14.68;;;6.10;55.70;;;;;;4962997;28;20042;-92
2022/03/26 03:32:56;;;;;;;32.58;14.90;;;6.00;55.60;;;;;;4964547;28;20043;-91
2022/03/26 03:35:22;;;;;;;32.10;15.10;;;6.10;55.70;;;;;;4957782;28;20077;-91
2022/03/26 03:37:49;;;;;;;27.95;14.60;;;6.00;56.10;;;;;;4948440;28;20029;-92
2022/03/26 03:40:14;;;;;;;30.25;14.73;;;6.00;55.60;;;;;;4957297;28;20113;-89
2022/03/26 03:42:40;;;;;;;31.45;16.45;;;6.00;55.70;;;;;;4966644;28;20385;-89
2022/03/26 03:45:09;;;;;;;34.53;15.55;;;5.90;55.80;;;;;;4957237;28;20027;-89
2022/03/26 03:47:34;;;;;;;28.15;14.70;;;5.90;56.00;;;;;;4957720;28;20377;-89
2022/03/26 03:50:00;;;;;;;29.65;14.98;;;5.80;56.10;;;;;;4946893;28;20023;-89
2022/03/26 03:52:26;;;;;;;27.88;14.77;;;5.80;56.10;;;;;;4953305;28;20237;-88
2022/03/26 03:54:51;;;;;;;29.55;14.50;;;5.80;56.10;;;;;;4956971;28;20101;-89
2022/03/26 03:57:17;;;;;;;30.15;14.95;;;5.80;56.10;;;;;;4964667;28;20089;-88
2022/03/26 03:59:43;;;;;;;29.70;14.85;;;5.70;56.00;;;;;;4956239;28;20038;-89
2022/03/26 04:02:09;;;;;;;26.83;14.02;;;5.70;56.00;;;;;;4968515;28;20140;-88
2022/03/26 04:04:40;;;;;;;29.98;14.98;;;5.70;56.20;;;;;;4958628;28;20038;-89
2022/03/26 04:07:06;;;;;;;31.17;15.07;;;5.70;56.30;;;;;;4958017;28;20038;-88
2022/03/26 04:09:32;;;;;;;33.58;14.80;;;5.70;56.30;;;;;;4963944;28;20033;-88
2022/03/26 04:11:57;;;;;;;31.70;14.70;;;5.60;56.40;;;;;;4959594;28;20023;-88
2022/03/26 04:14:23;;;;;;;36.72;16.63;;;5.60;56.50;;;;;;4986764;28;20031;-86
2022/03/26 04:16:48;;;;;;;31.67;14.85;;;5.50;56.40;;;;;;4977633;28;20015;-87
2022/03/26 04:19:14;;;;;;;30.60;14.88;;;5.50;57.00;;;;;;4961093;28;20085;-88
2022/03/26 04:21:40;;;;;;;30.92;14.60;;;5.40;56.60;;;;;;4959054;28;20026;-89
2022/03/26 04:24:05;;;;;;;28.90;13.75;;;5.40;56.60;;;;;;4964725;28;20085;-89
2022/03/26 04:26:31;;;;;;;30.60;14.18;;;5.40;56.50;;;;;;4973599;28;20369;-89
2022/03/26 04:28:57;;;;;;;31.23;15.10;;;5.40;56.50;;;;;;4955890;28;20434;-88
2022/03/26 04:31:22;;;;;;;29.10;15.20;;;5.30;56.60;;;;;;4960390;28;20035;-88
2022/03/26 04:33:48;;;;;;;30.92;15.23;;;5.20;56.70;;;;;;4954022;28;20466;-90
2022/03/26 04:36:14;;;;;;;33.30;14.70;;;5.20;56.70;;;;;;4959992;28;20523;-89
2022/03/26 04:38:40;;;;;;;29.17;14.55;;;5.10;56.70;;;;;;4957482;28;20034;-89
2022/03/26 04:41:07;;;;;;;30.45;14.15;;;5.10;56.90;;;;;;4966894;28;20106;-90
2022/03/26 04:43:32;;;;;;;32.28;14.93;;;5.00;57.00;;;;;;4972399;28;20037;-89
2022/03/26 04:45:58;;;;;;;28.88;15.38;;;5.00;57.00;;;;;;4957714;28;20026;-88
2022/03/26 04:48:23;;;;;;;28.10;13.52;;;4.90;57.00;;;;;;4973654;28;20027;-87
2022/03/26 04:50:49;;;;;;;31.95;14.30;;;4.90;57.20;;;;;;4945161;28;20022;-88
2022/03/26 04:53:14;;;;;;;31.52;15.68;;;4.90;57.30;;;;;;4957846;28;20027;-89
2022/03/26 04:55:40;;;;;;;31.67;14.98;;;4.90;57.40;;;;;;4950495;28;20023;-89
2022/03/26 04:58:06;;;;;;;29.55;15.13;;;4.90;57.50;;;;;;4965407;28;20023;-89
2022/03/26 05:00:32;;;;;;;29.60;14.80;;;4.90;57.50;;;;;;4948939;28;20134;-90
2022/03/26 05:02:57;;;;;;;34.35;15.30;;;4.90;57.50;;;;;;4961784;28;20517;-88
2022/03/26 05:05:23;;;;;;;30.10;13.60;;;4.90;57.50;;;;;;4963783;28;20027;-87
2022/03/26 05:07:49;;;;;;;28.25;13.48;;;4.80;57.40;;;;;;4956300;28;20117;-88
2022/03/26 05:10:17;;;;;;;30.67;15.15;;;4.70;57.40;;;;;;4962647;28;20089;-89
2022/03/26 05:12:44;;;;;;;31.90;15.35;;;4.70;57.60;;;;;;4963451;28;20030;-89
2022/03/26 05:15:10;;;;;;;32.10;14.68;;;4.60;57.60;;;;;;4953070;28;20027;-89
2022/03/26 05:17:36;;;;;;;34.40;15.13;;;4.60;57.80;;;;;;4955738;28;20113;-89
2022/03/26 05:20:06;;;;;;;32.33;15.07;;;4.60;57.90;;;;;;4958167;28;20035;-88
2022/03/26 05:22:32;;;;;;;31.65;15.80;;;4.60;58.00;;;;;;4962362;28;20027;-89
2022/03/26 05:24:58;;;;;;;32.60;17.17;;;4.60;57.90;;;;;;4952791;29;20024;-89
2022/03/26 05:27:23;;;;;;;33.38;16.13;;;4.60;57.90;;;;;;4946813;28;20029;-88
2022/03/26 05:29:49;;;;;;;31.83;16.88;;;4.60;57.90;;;;;;4957968;28;20077;-89
2022/03/26 05:32:16;;;;;;;33.33;16.35;;;4.60;57.90;;;;;;4967780;28;20073;-90
2022/03/26 05:34:42;;;;;;;33.17;16.67;;;4.60;57.90;;;;;;4959465;28;20027;-91
2022/03/26 05:37:08;;;;;;;35.65;16.95;;;4.50;57.80;;;;;;4970426;28;20110;-91
2022/03/26 05:39:33;;;;;;;34.75;16.77;;;4.50;57.90;;;;;;4969786;28;20130;-91
2022/03/26 05:41:59;;;;;;;29.10;15.52;;;4.50;58.10;;;;;;4966396;28;20027;-91
2022/03/26 05:44:25;;;;;;;33.88;16.75;;;4.40;58.10;;;;;;4966349;28;20042;-91
2022/03/26 05:46:51;;;;;;;34.38;14.77;;;4.40;58.20;;;;;;4976188;28;20389;-91
2022/03/26 05:49:16;;;;;;;32.08;16.08;;;4.50;58.30;;;;;;4960088;28;20034;-90
2022/03/26 05:51:44;;;;;;;33.88;15.52;;;4.50;58.30;;;;;;4965653;28;20029;-91
2022/03/26 05:54:09;;;;;;;33.47;16.42;;;4.50;58.30;;;;;;4961811;28;20551;-91
2022/03/26 05:56:38;;;;;;;34.00;17.73;;;4.50;58.30;;;;;;4961418;28;20027;-91
2022/03/26 05:59:10;;;;;;;32.95;16.33;;;4.50;58.20;;;;;;4973311;28;20038;-91
2022/03/26 06:01:36;;;;;;;35.83;17.60;;;4.50;58.40;;;;;;4964705;28;20031;-90
2022/03/26 06:04:02;;;;;;;33.92;16.58;;;4.60;58.50;;;;;;4961390;28;20374;-90
2022/03/26 06:06:27;;;;;;;37.35;16.75;;;4.60;58.50;;;;;;4963501;28;20470;-91
2022/03/26 06:08:53;;;;;;;30.48;15.10;;;4.70;58.60;;;;;;4966853;28;20050;-91
2022/03/26 06:11:19;;;;;;;30.33;14.65;;;4.70;58.60;;;;;;4953882;28;20027;-91
2022/03/26 06:13:44;;;;;;;32.25;15.32;;;4.80;58.70;;;;;;4975213;28;20078;-89
2022/03/26 06:16:10;;;;;;;33.67;16.30;;;4.90;58.60;;;;;;4966776;28;20461;-90
2022/03/26 06:18:36;;;;;;;29.67;14.63;;;4.90;58.60;;;;;;4958662;28;20036;-90
2022/03/26 06:21:05;;;;;;;37.28;15.75;;;5.00;58.60;;;;;;4976066;28;20039;-90
2022/03/26 06:23:31;;;;;;;30.25;14.40;;;5.10;58.60;;;;;;4958121;28;20058;-89
2022/03/26 06:25:57;;;;;;;29.38;14.73;;;5.20;58.50;;;;;;4957703;28;20031;-90
2022/03/26 06:28:22;;;;;;;28.40;15.48;;;5.30;58.50;;;;;;4966864;28;20031;-90
2022/03/26 06:30:49;;;;;;;33.72;15.45;;;5.40;58.50;;;;;;4952594;28;20097;-90
2022/03/26 06:33:16;;;;;;;30.13;16.05;;;5.60;58.50;;;;;;4958439;28;20130;-90
2022/03/26 06:35:42;;;;;;;28.40;15.25;;;5.60;58.50;;;;;;4957614;28;20034;-90
2022/03/26 06:38:08;;;;;;;28.20;14.75;;;5.80;58.50;;;;;;4966593;28;20042;-89
2022/03/26 06:40:34;;;;;;;31.60;15.05;;;5.90;58.50;;;;;;4961038;28;20042;-90
2022/03/26 06:43:02;;;;;;;28.63;14.15;;;6.00;58.50;;;;;;4962093;28;20573;-90
2022/03/26 06:45:28;;;;;;;31.98;14.30;;;6.20;58.50;;;;;;4962556;28;20497;-90
2022/03/26 06:47:54;;;;;;;32.58;13.85;;;6.30;58.50;;;;;;4972082;28;20042;-90
2022/03/26 06:50:26;;;;;;;30.90;14.90;;;6.40;58.30;;;;;;4955898;29;20016;-92
2022/03/26 06:53:03;;;;;;;27.10;12.82;;;6.60;58.40;;;;;;4970526;28;20034;-91
2022/03/26 06:55:31;;;;;;;31.80;13.85;;;6.80;58.20;;;;;;4971738;28;20445;-90
2022/03/26 06:57:58;;;;;;;27.98;13.38;;;7.00;57.90;;;;;;4963432;28;20026;-90
2022/03/26 07:00:57;;;;;;;28.42;14.68;;;7.30;57.90;;;;;;4936924;29;20084;-89
2022/03/26 07:03:37;;;;;;;;;;;;;;;;;;;;;
2022/03/26 07:06:16;;;;;;;27.45;13.82;;;7.80;57.50;;;;;;4969063;28;20026;-90
2022/03/26 07:09:00;;;;;;;25.73;13.85;;;8.10;57.20;;;;;;4988576;28;20019;-90
2022/03/26 07:11:51;;;;;;;;;;;;;;;;;;;;;
2022/03/26 07:15:26;;;;;;;31.48;14.00;;;8.80;56.90;;;;;;4956314;29;20512;-90
2022/03/26 07:17:51;;;;;;;30.13;14.05;;;9.30;56.50;;;;;;4959317;28;20085;-90
2022/03/26 07:20:20;;;;;;;29.60;14.00;;;9.80;55.80;;;;;;4957784;28;20668;-91
2022/03/26 07:27:14;;;;;;;;;;;;;;;;;;;;;
2022/03/26 07:34:33;;;;;;;;;;;;;;;;;;;;;
2022/03/26 07:37:50;;;;;;;32.65;13.98;;;12.20;54.40;;;;;;4835745;29;20038;-91
2022/03/26 07:43:58;;;;;;;25.58;13.30;;;13.20;52.90;;;;;;4822397;29;20122;-90
2022/03/26 07:46:29;;;;;;;28.77;14.10;;;13.80;51.80;;;;;;4816659;29;20065;-91
2022/03/26 07:49:05;;;;;;;29.98;14.57;;;14.40;51.10;;;;;;4847725;29;20041;-90
2022/03/26 07:52:02;;;;;;;26.13;13.60;;;15.10;50.30;;;;;;4926460;28;20130;-91
2022/03/26 07:54:28;;;;;;;27.73;14.80;;;15.70;49.30;;;;;;4963615;28;20125;-89
2022/03/26 07:56:54;;;;;;;30.92;13.55;;;16.60;48.50;;;;;;4962427;28;20070;-90
2022/03/26 07:59:19;;;;;;;29.38;14.13;;;17.20;47.80;;;;;;4962692;28;20038;-90
2022/03/26 08:58:28;;;;;;;30.13;15.75;;;23.60;38.60;;;;;;4953260;29;20075;-89
2022/03/26 09:00:53;;;;;;;31.08;16.10;;;23.60;38.50;;;;;;4953970;28;20384;-89
2022/03/26 09:03:21;;;;;;;34.38;15.38;;;23.60;38.70;;;;;;4945678;28;20050;-89
2022/03/26 09:05:50;;;;;;;28.35;16.30;;;23.50;38.80;;;;;;4953008;29;20023;-89
2022/03/26 09:08:16;;;;;;;30.25;15.57;;;23.30;38.60;;;;;;4946113;28;20086;-89
2022/03/26 09:10:42;;;;;;;33.83;16.33;;;23.10;39.20;;;;;;4973466;28;20395;-89
2022/03/26 09:13:08;;;;;;;27.90;15.38;;;23.00;39.40;;;;;;4949236;29;20042;-89
2022/03/26 09:15:34;;;;;;;27.25;15.52;;;22.90;39.60;;;;;;4967836;29;20037;-89
2022/03/26 09:18:00;;;;;;;28.10;16.45;;;22.90;39.60;;;;;;4959871;28;20035;-89
2022/03/26 09:20:26;;;;;;;32.13;16.55;;;22.80;39.60;;;;;;4958127;28;20011;-89
2022/03/26 09:22:52;;;;;;;31.13;15.80;;;22.80;39.80;;;;;;4948479;28;20050;-89
2022/03/26 09:25:20;;;;;;;31.20;16.30;;;22.80;39.90;;;;;;4957913;28;20031;-90
2022/03/26 09:27:46;;;;;;;31.02;16.52;;;22.70;39.90;;;;;;4953160;28;20052;-89
2022/03/26 09:30:12;;;;;;;28.65;16.00;;;22.70;40.20;;;;;;4953633;28;20035;-89
2022/03/26 09:32:37;;;;;;;30.77;16.45;;;22.70;40.20;;;;;;4953430;28;20094;-89
2022/03/26 09:35:04;;;;;;;30.80;16.10;;;22.60;40.10;;;;;;4937889;29;20051;-90
2022/03/26 09:37:30;;;;;;;27.25;15.45;;;22.50;40.20;;;;;;4934669;28;20543;-90
2022/03/26 09:39:55;;;;;;;30.88;16.23;;;22.40;40.20;;;;;;4946276;29;20039;-90
2022/03/26 09:42:25;;;;;;;26.92;15.85;;;22.20;40.30;;;;;;4958917;28;20027;-89
2022/03/26 09:44:51;;;;;;;29.83;16.50;;;22.00;40.60;;;;;;4935913;29;20036;-89
2022/03/26 09:47:17;;;;;;;26.00;15.13;;;21.90;40.90;;;;;;4936869;29;20027;-92
2022/03/26 09:49:43;;;;;;;30.98;16.45;;;21.90;40.80;;;;;;4943163;28;20035;-90
2022/03/26 09:52:09;;;;;;;28.95;15.55;;;21.80;40.70;;;;;;4944144;28;20522;-90
2022/03/26 09:54:36;;;;;;;30.85;16.00;;;21.70;40.80;;;;;;4938444;29;20110;-90
2022/03/26 09:57:03;;;;;;;28.48;15.68;;;21.80;40.90;;;;;;4948167;28;20040;-90
2022/03/26 09:59:28;;;;;;;35.17;17.23;;;21.80;40.90;;;;;;4937697;29;20027;-90
2022/03/26 10:01:54;;;;;;;35.35;16.73;;;21.80;40.60;;;;;;4936656;29;20038;-91
2022/03/26 10:04:22;;;;;;;26.33;14.68;;;21.80;40.40;;;;;;4947084;29;20031;-91
2022/03/26 10:06:54;;;;;;;29.38;14.68;;;21.70;40.20;;;;;;4948471;28;20109;-91
2022/03/26 10:09:45;;;;;;;24.73;13.77;;;21.60;40.20;;;;;;4959485;28;20607;-91
2022/03/26 10:12:18;;;;;;;29.52;14.60;;;21.50;40.00;;;;;;4951261;28;20031;-92
2022/03/26 10:14:48;;;;;;;26.90;13.70;;;21.50;40.10;;;;;;4939140;28;20033;-90
2022/03/26 10:17:18;;;;;;;26.20;13.70;;;21.60;40.00;;;;;;4935503;29;20051;-91
2022/03/26 10:19:46;;;;;;;28.70;15.93;;;21.50;40.00;;;;;;4957994;29;20031;-92
2022/03/26 10:22:23;;;;;;;28.15;13.98;;;21.40;39.50;;;;;;4939534;29;20156;-92
2022/03/26 10:24:49;;;;;;;26.08;13.85;;;21.30;39.60;;;;;;4941405;28;20051;-90
2022/03/26 10:27:15;;;;;;;24.83;14.27;;;21.30;39.60;;;;;;4940602;29;20079;-88
2022/03/26 10:29:56;;;;;;;29.38;13.80;;;21.20;39.40;;;;;;4948197;28;20023;-90
2022/03/26 10:35:18;;;;;;;26.92;13.48;;;21.20;39.60;;;;;;4957373;28;20046;-89
2022/03/26 10:37:44;;;;;;;26.65;13.23;;;21.20;39.40;;;;;;4953185;28;20062;-90
2022/03/26 10:40:40;;;;;;;23.00;13.38;;;21.10;39.40;;;;;;4947472;29;20204;-91
2022/03/26 10:43:14;;;;;;;27.23;13.98;;;21.10;39.10;;;;;;4939930;29;20064;-90
2022/03/26 10:46:03;;;;;;;36.85;19.35;;;21.20;39.20;;;;;;4945942;29;20038;-91
2022/03/26 10:48:30;;;;;;;26.33;13.35;;;21.30;39.10;;;;;;4959594;28;20031;-90
2022/03/26 10:51:07;;;;;;;25.75;12.98;;;21.10;38.90;;;;;;4943027;29;20028;-91
2022/03/26 10:53:37;;;;;;;25.77;13.65;;;21.10;38.60;;;;;;4944073;29;20031;-91
2022/03/26 10:56:05;;;;;;;24.75;12.88;;;21.10;38.80;;;;;;4941804;29;20035;-91
2022/03/26 10:58:32;;;;;;;24.08;14.10;;;21.10;38.70;;;;;;4945061;29;20173;-92
2022/03/26 11:00:58;;;;;;;23.63;13.65;;;21.10;38.50;;;;;;4946311;29;20030;-93
2022/03/26 11:03:25;;;;;;;26.92;13.73;;;21.10;38.50;;;;;;4957263;29;20124;-92
2022/03/26 11:05:54;;;;;;;27.38;13.57;;;21.10;38.20;;;;;;4959281;29;20077;-91
2022/03/26 11:08:22;;;;;;;24.45;13.18;;;21.10;38.00;;;;;;4957949;29;20099;-91
2022/03/26 11:10:52;;;;;;;28.60;13.50;;;21.00;38.10;;;;;;4963894;28;20015;-91
2022/03/26 11:13:19;;;;;;;26.67;12.52;;;21.00;38.00;;;;;;4940981;29;20077;-91
2022/03/26 11:16:01;;;;;;;21.52;12.25;;;21.10;38.00;;;;;;4940690;29;20027;-91
2022/03/26 11:18:55;;;;;;;20.13;12.65;;;21.30;37.70;;;;;;4941788;29;20038;-91
2022/03/26 11:21:47;;;;;;;27.42;14.07;;;21.10;37.40;;;;;;4953894;28;20041;-91
2022/03/26 11:24:27;;;;;;;24.92;13.27;;;21.10;37.70;;;;;;4951991;28;20411;-90
2022/03/26 11:27:42;;;;;;;25.90;12.45;;;21.10;37.80;;;;;;4949471;28;20027;-90
2022/03/26 11:30:47;;;;;;;22.40;12.18;;;21.10;37.60;;;;;;4902299;29;20047;-91
2022/03/26 11:33:17;;;;;;;21.67;12.25;;;21.10;38.00;;;;;;4897002;29;20044;-92
2022/03/26 11:35:58;;;;;;;26.85;12.65;;;21.20;38.10;;;;;;4939595;29;20090;-90
2022/03/26 11:38:28;;;;;;;23.70;13.05;;;21.20;37.40;;;;;;4936229;29;20038;-90
2022/03/26 11:40:56;;;;;;;27.67;12.27;;;21.30;37.70;;;;;;4946592;28;20027;-89
2022/03/26 11:43:42;;;;;;;20.95;11.43;;;21.40;38.00;;;;;;4941896;28;20086;-90
2022/03/26 11:51:49;;;;;;;22.05;11.77;;;21.70;37.10;;;;;;4977062;28;20038;-90
2022/03/26 11:54:15;;;;;;;20.23;12.20;;;21.70;37.00;;;;;;4962699;28;20019;-90
2022/03/26 11:56:42;;;;;;;21.70;11.95;;;21.70;36.60;;;;;;4956526;28;20047;-90
2022/03/26 11:59:25;;;;;;;21.45;12.23;;;21.50;36.30;;;;;;4984252;28;20447;-90
2022/03/26 12:01:51;;;;;;;22.40;12.80;;;21.40;36.10;;;;;;4958801;28;20054;-91
2022/03/26 12:04:28;;;;;;;25.48;12.35;;;21.30;36.60;;;;;;4956990;28;20480;-90
2022/03/26 12:06:54;;;;;;;24.80;13.07;;;21.30;36.50;;;;;;4955666;28;20035;-90
2022/03/26 12:09:34;;;;;;;23.90;12.63;;;21.30;36.60;;;;;;4959871;28;20037;-89
2022/03/26 12:12:06;;;;;;;26.10;12.13;;;21.30;36.70;;;;;;4956953;28;20492;-90
2022/03/26 12:14:32;;;;;;;24.90;12.30;;;21.30;36.70;;;;;;4965747;28;20707;-90
2022/03/26 12:17:03;;;;;;;23.80;11.93;;;21.30;36.90;;;;;;4947232;28;20037;-90
2022/03/26 12:19:47;;;;;;;21.98;11.65;;;21.40;37.30;;;;;;4928735;29;20027;-89
2022/03/26 12:22:25;;;;;;;20.25;11.52;;;21.50;36.90;;;;;;4936734;29;20125;-90
2022/03/26 12:24:53;;;;;;;20.98;11.95;;;21.60;36.80;;;;;;4953866;28;20023;-90
2022/03/26 12:27:19;;;;;;;22.63;11.82;;;21.70;37.60;;;;;;4939415;29;20023;-90
2022/03/26 12:29:44;;;;;;;21.25;12.57;;;21.70;36.80;;;;;;4937009;29;20034;-90
2022/03/26 12:32:10;;;;;;;24.00;12.45;;;21.80;36.60;;;;;;4936713;29;20023;-90
2022/03/26 12:35:05;;;;;;;24.98;12.05;;;21.80;36.90;;;;;;4937236;29;20102;-90
2022/03/26 12:37:31;;;;;;;26.55;15.07;;;22.00;36.80;;;;;;4960523;28;20046;-90
2022/03/26 12:39:57;;;;;;;23.50;12.63;;;22.00;36.70;;;;;;4957441;28;20396;-90
2022/03/26 12:42:24;;;;;;;23.13;12.68;;;22.00;36.80;;;;;;4937455;29;20126;-90
2022/03/26 12:44:51;;;;;;;23.35;12.57;;;22.00;36.50;;;;;;4937953;29;20388;-89
2022/03/26 12:47:18;;;;;;;23.73;13.35;;;21.90;36.60;;;;;;4954226;28;20051;-89
2022/03/26 12:49:47;;;;;;;24.20;12.68;;;21.90;36.60;;;;;;4961316;28;20048;-89
2022/03/26 12:52:19;;;;;;;24.35;12.45;;;21.90;36.50;;;;;;4934940;29;20031;-90
2022/03/26 12:54:58;;;;;;;31.92;14.55;;;21.80;37.00;;;;;;4953546;28;20069;-90
2022/03/26 12:57:25;;;;;;;24.05;11.95;;;21.90;37.10;;;;;;4950247;28;20045;-89
2022/03/26 12:59:55;;;;;;;25.95;12.30;;;22.10;37.00;;;;;;4963225;28;20038;-90
2022/03/26 13:02:21;;;;;;;20.65;11.93;;;22.10;36.60;;;;;;4947317;28;20032;-89
2022/03/26 13:04:53;;;;;;;20.48;11.77;;;22.00;36.30;;;;;;4951190;28;20031;-90
2022/03/26 13:07:22;;;;;;;21.27;11.38;;;21.90;36.30;;;;;;4936749;29;20041;-90
2022/03/26 13:09:54;;;;;;;19.70;11.75;;;21.80;36.70;;;;;;4935723;28;20037;-89
2022/03/26 13:12:27;;;;;;;21.27;11.27;;;21.80;36.60;;;;;;4936012;29;20035;-90
2022/03/26 13:14:53;;;;;;;23.52;11.20;;;22.00;36.40;;;;;;4929942;29;20035;-90
2022/03/26 13:17:21;;;;;;;20.98;10.85;;;22.10;36.80;;;;;;4937330;29;20023;-90
2022/03/26 13:19:47;;;;;;;19.30;9.82;;;22.30;36.40;;;;;;4939748;28;20034;-90
2022/03/26 13:22:16;;;;;;;15.95;9.85;;;22.30;35.90;;;;;;4949095;28;20063;-89
2022/03/26 13:24:50;;;;;;;22.33;9.32;;;22.40;35.40;;;;;;4944589;29;20027;-90
2022/03/26 13:27:18;;;;;;;17.75;9.80;;;22.30;34.90;;;;;;4929121;29;20027;-89
2022/03/26 13:29:43;;;;;;;16.27;9.52;;;22.10;35.10;;;;;;4931775;28;20031;-90
2022/03/26 13:32:09;;;;;;;19.52;9.80;;;22.10;35.30;;;;;;4952147;28;20024;-90
2022/03/26 13:34:44;;;;;;;17.13;9.45;;;22.10;35.20;;;;;;4937195;29;20131;-90
2022/03/26 13:37:15;;;;;;;17.13;10.32;;;22.30;35.50;;;;;;4936636;29;20019;-90
2022/03/26 13:39:59;;;;;;;18.35;9.32;;;22.50;35.20;;;;;;4947081;28;20067;-90
2022/03/26 13:42:25;;;;;;;21.42;9.30;;;22.70;35.10;;;;;;4932542;29;20032;-90
2022/03/26 13:44:53;;;;;;;18.85;9.32;;;22.90;35.40;;;;;;4936434;29;20045;-90
2022/03/26 13:47:30;;;;;;;21.98;8.73;;;23.10;34.80;;;;;;4936299;29;20086;-90
2022/03/26 13:50:05;;;;;;;18.60;9.15;;;23.40;34.20;;;;;;4941250;28;20035;-90
2022/03/26 13:52:34;;;;;;;15.73;7.78;;;23.40;34.10;;;;;;4956567;28;20115;-90
2022/03/26 13:55:00;;;;;;;16.92;9.00;;;23.40;34.90;;;;;;4951765;28;20506;-90
2022/03/26 13:57:36;;;;;;;13.63;8.30;;;23.40;34.40;;;;;;4951364;29;20032;-90
2022/03/26 14:00:07;;;;;;;15.15;8.57;;;23.20;33.40;;;;;;4954774;28;20081;-89
2022/03/26 14:02:37;;;;;;;14.13;7.90;;;22.70;33.30;;;;;;4965904;28;20054;-89
2022/03/26 14:05:03;;;;;;;14.43;7.55;;;22.20;33.40;;;;;;4959152;29;20031;-89
2022/03/26 14:07:28;;;;;;;14.13;7.65;;;21.60;33.40;;;;;;4938553;28;20111;-90
2022/03/26 14:09:55;;;;;;;12.02;7.32;;;21.20;33.60;;;;;;4949203;29;20082;-89